Aérodrome :
LOGIN :

S'inscrire | Disclaimer

   EN    FR    IT 

 










Légende :    VFR   VFR Marginal   IFR   IFR Intensif   IFR Très Intensif
Visi : 
Plafond : 
>= 8 km
>= 3000ft
5 à 8 km
1000 à 3000 ft
1500m à 5 km
500 à 1000 ft
800 à 1500m
200 à 500 ft
< 800m
< 200 ft
Symboles :   Orages  Brouillard  Fortes neiges  Fortes précipitations  Vent > 20 kt
SIGMETs :   Divers  Orages  Givrage  Turbulence  Onde Orograph.  Cendres Volcan.







- Altitude de l'aérodrome : 427 ft
- Code IATA : CIA


LIRA - Roma Ciampino

DERNIER METAR :
  • 181020Z 03010KT CAVOK 08/01 Q1024

METARs EXPIRÉS :
  • 180950Z 03008KT CAVOK 08/01 Q1024
  • 180920Z 03008KT CAVOK 07/01 Q1024
  • 180850Z 04007KT CAVOK 06/00 Q1024
  • 180820Z 04006KT 010V080 CAVOK 06/M00 Q1024
  • 180750Z 04006KT CAVOK 05/M00 Q1023
  • 180720Z 03007KT CAVOK 05/M01 Q1023

TAF TAF LIRA
Valide du 18 à 06h jusqu'au 19 à 06h UTC


180500Z 1806/1906 02008KT 9999 FEW030
Pas de NOTAMs connus pour ce terrain.
1 SIGMET publié pour la FIR Roma (LIRR) :
 
Turbulence forte
LIRR SIGMET 3 VALID 180935/181135 LIIB
LIRR ROMA FIR SEV TURB FCST WI N4250 E01301 - N4215 E01144 - N4111 E01201 - N3909 E01513 - N4007 E01537 - N4113 E01512 - N4127 E01416 - N4250 E01301 FL020/080 STNR WKN=



MET'MAP, la Météo Aéronautique d'un coup d'oeil ! - Copyright ORBIFLY Décembre 2007 - Disclaimer

ORBIFLY MET'MAP TEAM :

Programmation & Développement : Alexandra Zaïnal
Conception & Développement : Baudouin d'Aumeries
Co-Programmation & Développement : Marc-Olivier Méhu
Soutien technique & logistique : Manuel Goepfert

Contact : metmap@orbifly.com




SOURCES & CREDITS :

   NOAA